Time;durP1;ratioP1;P1;durP2;ratioP2;P2;SDS_P1;SDS_P2;PMS_P1;PMS_P2;Temp;Humidity;BMP_temperature;BMP_pressure;BME280_temperature;BME280_humidity;BME280_pressure;Samples;Min_cycle;Max_cycle;Signal;HPM_P1;HPM_P2
2022/03/28 00:03:38;;;;;;;16.50;8.20;;;;;;;0.98;58.66;100717.41;214688;1274;139709;-72
2022/03/28 00:08:43;;;;;;;15.30;7.80;;;;;;;0.93;58.71;100711.62;213518;1274;140544;-70
2022/03/28 00:13:47;;;;;;;17.60;6.80;;;;;;;0.91;58.66;100705.86;215356;1272;139949;-73
2022/03/28 00:18:52;;;;;;;17.50;8.20;;;;;;;0.89;58.61;100695.92;215719;1273;139349;-74
2022/03/28 00:23:56;;;;;;;13.50;6.90;;;;;;;0.91;58.81;100689.95;215638;1272;139575;-69
2022/03/28 00:29:01;;;;;;;13.70;6.80;;;;;;;0.93;58.61;100682.48;214022;1273;140695;-68
2022/03/28 00:34:07;;;;;;;15.20;6.40;;;;;;;1.00;58.27;100679.40;216205;1274;140656;-72
2022/03/28 00:39:11;;;;;;;11.80;6.70;;;;;;;1.10;58.25;100668.86;216173;1272;140606;-71
2022/03/28 00:44:16;;;;;;;10.30;6.30;;;;;;;1.23;58.05;100660.63;216288;1272;141314;-71
2022/03/28 00:49:20;;;;;;;10.60;8.30;;;;;;;1.37;58.20;100653.85;214612;1274;141959;-70
2022/03/28 00:54:25;;;;;;;11.70;6.10;;;;;;;1.52;57.63;100646.71;213681;1274;140270;-67
2022/03/28 00:59:32;;;;;;;14.20;7.90;;;;;;;1.63;57.41;100632.67;214323;1274;141422;-67
2022/03/28 01:04:37;;;;;;;15.30;6.60;;;;;;;1.68;57.48;100617.59;215580;1272;139578;-69
2022/03/28 01:09:42;;;;;;;12.10;6.90;;;;;;;1.74;57.06;100602.42;214338;1274;140010;-66
2022/03/28 01:14:48;;;;;;;12.00;6.20;;;;;;;1.83;56.69;100593.84;214271;1274;140190;-68
2022/03/28 01:19:53;;;;;;;6.90;4.80;;;;;;;1.92;56.45;100586.40;213978;1274;140353;-74
2022/03/28 01:25:01;;;;;;;18.20;6.90;;;;;;;1.98;56.15;100581.56;214287;1273;139896;-69
2022/03/28 01:30:08;;;;;;;13.70;6.90;;;;;;;2.05;56.21;100569.96;214896;1273;139257;-68
2022/03/28 01:35:12;;;;;;;10.20;6.80;;;;;;;2.11;56.39;100561.10;214393;1273;139457;-72
2022/03/28 01:40:17;;;;;;;10.80;5.80;;;;;;;2.17;55.85;100559.09;214724;1274;140795;-72
2022/03/28 01:45:23;;;;;;;11.50;6.60;;;;;;;2.19;55.94;100555.91;213872;1274;140124;-68
2022/03/28 01:50:28;;;;;;;11.60;6.10;;;;;;;2.21;55.67;100549.67;213479;1274;144421;-64
2022/03/28 01:55:33;;;;;;;15.20;6.90;;;;;;;2.21;55.80;100546.80;213595;1273;139949;-69
2022/03/28 02:00:40;;;;;;;13.70;6.90;;;;;;;2.20;55.32;100537.30;213684;1273;142326;-70
2022/03/28 02:05:45;;;;;;;10.60;5.70;;;;;;;2.19;55.43;100528.36;214326;1274;140704;-67
2022/03/28 02:10:49;;;;;;;9.50;6.70;;;;;;;2.16;55.11;100524.10;213318;1273;141400;-66
2022/03/28 02:15:54;;;;;;;11.70;5.30;;;;;;;2.12;55.38;100518.63;215183;1273;139683;-69
2022/03/28 02:20:58;;;;;;;11.90;5.60;;;;;;;2.08;55.25;100518.69;214585;1273;144128;-71
2022/03/28 02:26:06;;;;;;;12.10;5.60;;;;;;;2.05;55.37;100514.92;213604;1274;140167;-70
2022/03/28 02:31:11;;;;;;;11.80;6.30;;;;;;;2.00;55.51;100514.23;215220;1273;142185;-68
2022/03/28 02:36:15;;;;;;;11.30;5.00;;;;;;;1.97;55.72;100507.73;216209;1272;152068;-71
2022/03/28 02:41:18;;;;;;;10.00;5.10;;;;;;;1.97;55.77;100505.77;216316;1273;138926;-71
2022/03/28 02:46:22;;;;;;;11.10;5.60;;;;;;;2.01;55.90;100500.25;216677;1272;139597;-74
2022/03/28 02:51:27;;;;;;;6.00;5.10;;;;;;;2.05;55.86;100491.61;216390;1272;141154;-74
2022/03/28 02:56:31;;;;;;;9.20;6.40;;;;;;;2.10;55.30;100495.13;216127;1272;139831;-75
2022/03/28 03:01:35;;;;;;;10.80;5.60;;;;;;;2.15;55.59;100484.59;215397;1273;139902;-69
2022/03/28 03:06:40;;;;;;;11.80;6.60;;;;;;;2.16;55.61;100480.64;216145;1274;139059;-74
2022/03/28 03:11:45;;;;;;;15.10;6.90;;;;;;;2.15;55.55;100478.25;214978;1272;139620;-68
2022/03/28 03:16:50;;;;;;;9.30;6.00;;;;;;;2.15;55.86;100476.27;214565;1271;139938;-66
2022/03/28 03:21:55;;;;;;;11.70;7.00;;;;;;;2.16;55.89;100476.86;214382;1273;139721;-70
2022/03/28 03:27:00;;;;;;;11.60;5.80;;;;;;;2.18;55.62;100474.77;213813;1272;140325;-68
2022/03/28 03:32:06;;;;;;;18.70;7.50;;;;;;;2.19;55.64;100471.58;213551;1273;139533;-68
2022/03/28 03:37:11;;;;;;;9.60;6.10;;;;;;;2.17;55.71;100469.96;214390;1273;139136;-68
2022/03/28 03:42:15;;;;;;;13.30;6.50;;;;;;;2.15;56.02;100473.38;213297;1273;140146;-65
2022/03/28 03:47:19;;;;;;;12.20;7.30;;;;;;;2.11;55.96;100477.10;213718;1273;139273;-69
2022/03/28 03:52:23;;;;;;;13.80;7.20;;;;;;;2.07;56.03;100472.10;213429;1272;139857;-66
2022/03/28 03:57:28;;;;;;;12.80;6.60;;;;;;;2.03;56.18;100469.04;214086;1272;139621;-69
2022/03/28 04:02:33;;;;;;;11.10;7.00;;;;;;;1.98;56.17;100469.35;213394;1274;140181;-68
2022/03/28 04:07:38;;;;;;;12.90;7.50;;;;;;;1.90;56.41;100461.60;213443;1274;231842;-68
2022/03/28 04:12:42;;;;;;;10.90;6.40;;;;;;;1.83;56.66;100450.48;214317;1272;139880;-67
2022/03/28 04:17:47;;;;;;;13.00;6.60;;;;;;;1.79;56.54;100450.59;214871;1273;139694;-71
2022/03/28 04:22:51;;;;;;;12.20;7.20;;;;;;;1.78;57.14;100447.66;214154;1274;140696;-70
2022/03/28 04:27:55;;;;;;;14.60;7.70;;;;;;;1.79;56.98;100443.23;215078;1272;139092;-71
2022/03/28 04:32:59;;;;;;;18.70;8.30;;;;;;;1.83;57.60;100435.41;215430;1274;141241;-70
2022/03/28 04:38:06;;;;;;;15.20;7.40;;;;;;;1.91;57.32;100426.24;215975;1273;140026;-71
2022/03/28 04:43:11;;;;;;;9.40;6.20;;;;;;;2.04;57.56;100425.28;215500;1273;139297;-71
2022/03/28 04:48:14;;;;;;;7.70;6.30;;;;;;;2.17;57.58;100423.45;216425;1272;139248;-72
2022/03/28 04:53:18;;;;;;;11.50;7.60;;;;;;;2.35;58.08;100417.88;215939;1274;139465;-69
2022/03/28 04:58:22;;;;;;;11.60;7.00;;;;;;;2.56;58.25;100410.17;216577;1271;139916;-71
2022/03/28 05:03:26;;;;;;;13.60;6.20;;;;;;;2.76;57.86;100409.20;216491;1272;139187;-70
2022/03/28 05:08:30;;;;;;;11.70;9.40;;;;;;;2.96;58.24;100404.35;215884;1274;139343;-73
2022/03/28 05:13:37;;;;;;;12.00;7.40;;;;;;;3.16;57.98;100398.98;214538;1274;140668;-73
2022/03/28 05:18:42;;;;;;;15.90;10.10;;;;;;;3.36;58.42;100398.30;214577;1273;140641;-74
2022/03/28 05:23:47;;;;;;;12.80;6.90;;;;;;;3.56;58.41;100396.75;215130;1274;162339;-72
2022/03/28 05:28:53;;;;;;;12.60;7.90;;;;;;;3.77;58.60;100396.49;213831;1274;142189;-69
2022/03/28 05:33:57;;;;;;;13.10;7.80;;;;;;;3.94;58.62;100392.33;213441;1271;139937;-72
2022/03/28 05:39:01;;;;;;;11.90;7.80;;;;;;;4.13;58.68;100387.77;215077;1273;141255;-73
2022/03/28 05:44:06;;;;;;;11.00;6.50;;;;;;;4.31;58.62;100390.74;214587;1273;139411;-73
2022/03/28 05:49:11;;;;;;;10.20;7.70;;;;;;;4.50;58.57;100386.23;213234;1274;139286;-70
2022/03/28 05:54:17;;;;;;;12.70;7.40;;;;;;;4.69;58.69;100378.02;214067;1274;139653;-73
2022/03/28 05:59:21;;;;;;;15.80;7.80;;;;;;;4.87;58.64;100373.73;214833;1273;139900;-74
2022/03/28 06:04:26;;;;;;;15.50;8.10;;;;;;;5.04;58.57;100371.48;214288;1274;139170;-73
2022/03/28 06:09:32;;;;;;;15.10;8.90;;;;;;;5.23;58.64;100365.24;213278;1273;140904;-75
2022/03/28 06:14:37;;;;;;;13.20;8.40;;;;;;;5.41;58.63;100369.19;214251;1271;139786;-74
2022/03/28 06:19:41;;;;;;;12.80;8.10;;;;;;;5.59;58.37;100368.28;213461;1273;140154;-73
2022/03/28 06:24:45;;;;;;;13.60;6.90;;;;;;;5.78;58.54;100367.64;213952;1273;139257;-72
2022/03/28 06:29:49;;;;;;;12.70;7.30;;;;;;;5.95;58.44;100367.05;215088;1272;140477;-76
2022/03/28 06:34:52;;;;;;;15.20;9.50;;;;;;;6.15;58.28;100358.92;213506;1272;139090;-73
2022/03/28 06:39:57;;;;;;;11.50;8.80;;;;;;;6.37;58.50;100351.58;213501;1274;141249;-69
2022/03/28 06:45:01;;;;;;;15.20;8.90;;;;;;;6.59;58.36;100342.44;215746;1274;139386;-75
2022/03/28 06:50:07;;;;;;;12.60;7.50;;;;;;;6.82;58.50;100335.77;215233;1274;141012;-71
2022/03/28 06:55:12;;;;;;;12.20;7.60;;;;;;;7.09;58.93;100329.49;216300;1274;140232;-74
2022/03/28 07:00:17;;;;;;;10.80;6.90;;;;;;;7.44;58.37;100323.75;215819;1273;641573;-74
2022/03/28 07:05:21;;;;;;;25.00;8.00;;;;;;;7.84;58.41;100321.98;216202;1272;140443;-77
2022/03/28 07:10:25;;;;;;;10.60;7.50;;;;;;;8.24;58.58;100316.21;214769;1274;139516;-76
2022/03/28 07:15:34;;;;;;;9.20;7.30;;;;;;;8.81;58.20;100306.23;214427;1274;139766;-77
2022/03/28 07:20:39;;;;;;;13.90;8.70;;;;;;;9.99;58.21;100295.60;214995;1274;139815;-78
2022/03/28 07:25:44;;;;;;;12.70;7.90;;;;;;;11.43;57.02;100289.67;214501;1274;140363;-68
2022/03/28 07:30:49;;;;;;;13.50;8.50;;;;;;;13.15;55.62;100280.51;213972;1274;144178;-71
2022/03/28 07:35:54;;;;;;;16.50;8.60;;;;;;;14.56;53.80;100277.66;214554;1274;139389;-71
2022/03/28 07:40:58;;;;;;;14.30;8.00;;;;;;;15.42;52.18;100277.80;214448;1273;139960;-70
2022/03/28 07:46:03;;;;;;;9.50;6.30;;;;;;;15.85;51.11;100275.16;213319;1274;140389;-72
2022/03/28 07:51:06;;;;;;;12.90;8.30;;;;;;;16.17;50.14;100267.18;214316;1273;139257;-76
2022/03/28 07:56:10;;;;;;;16.70;8.40;;;;;;;16.45;49.18;100256.92;214093;1274;139632;-77
2022/03/28 08:01:15;;;;;;;12.30;9.40;;;;;;;16.72;48.83;100250.54;213760;1274;139726;-77
2022/03/28 08:06:19;;;;;;;13.60;9.00;;;;;;;16.83;48.24;100240.06;214765;1274;139629;-75
2022/03/28 08:11:23;;;;;;;12.70;7.00;;;;;;;16.86;47.91;100232.05;214677;1274;140165;-76
2022/03/28 08:16:27;;;;;;;10.40;5.60;;;;;;;16.72;47.01;100230.52;213488;1273;139452;-77
2022/03/28 08:21:32;;;;;;;16.00;7.90;;;;;;;16.50;46.70;100229.66;214275;1273;139536;-73
2022/03/28 08:26:36;;;;;;;12.70;7.50;;;;;;;16.41;46.79;100223.44;214712;1274;142560;-80
2022/03/28 08:31:41;;;;;;;10.60;6.30;;;;;;;16.36;46.61;100226.05;214291;1274;141176;-73
2022/03/28 08:36:46;;;;;;;10.60;6.40;;;;;;;16.47;46.67;100216.36;214759;1274;141363;-78
2022/03/28 08:41:50;;;;;;;11.90;7.00;;;;;;;16.54;46.20;100206.48;213865;1274;141698;-70
2022/03/28 08:46:55;;;;;;;10.10;7.40;;;;;;;16.54;46.05;100197.75;215707;1274;140162;-72
2022/03/28 08:51:59;;;;;;;13.20;6.10;;;;;;;16.61;45.97;100188.42;215535;1274;140127;-76
2022/03/28 08:57:04;;;;;;;14.60;7.10;;;;;;;16.59;45.08;100187.61;214354;1273;140013;-78
2022/03/28 09:02:32;;;;;;;14.40;7.50;;;;;;;16.51;45.07;100183.13;213614;1274;139456;-75
2022/03/28 09:07:37;;;;;;;10.10;6.60;;;;;;;16.59;45.22;100177.86;214583;1273;139140;-76
2022/03/28 09:13:01;;;;;;;10.20;6.70;;;;;;;16.66;45.19;100169.85;216286;1274;139729;-80
2022/03/28 09:18:05;;;;;;;9.60;6.20;;;;;;;16.79;44.93;100163.17;214474;1274;139699;-80
2022/03/28 09:23:42;;;;;;;7.70;6.70;;;;;;;16.91;44.90;100166.85;215849;1273;139582;-78
2022/03/28 09:28:49;;;;;;;33.70;22.60;;;;;;;16.97;44.61;100158.48;215958;1274;140691;-79
2022/03/28 09:34:15;;;;;;;11.10;6.90;;;;;;;17.11;44.59;100148.10;214468;1274;139458;-70
2022/03/28 09:39:24;;;;;;;14.20;9.10;;;;;;;17.32;44.12;100136.75;214404;1274;141387;-74
2022/03/28 09:44:34;;;;;;;13.70;10.90;;;;;;;17.37;43.87;100132.49;214796;1273;141252;-76
2022/03/28 09:49:41;;;;;;;22.70;18.10;;;;;;;17.37;43.47;100124.03;213707;1274;140530;-81
2022/03/28 09:54:50;;;;;;;24.60;10.90;;;;;;;17.34;43.18;100116.77;214240;1274;142342;-82
2022/03/28 10:03:52;;;;;;;18.90;16.70;;;;;;;17.44;42.99;100101.38;212144;1317;685136;-77
2022/03/28 10:08:56;;;;;;;19.40;17.30;;;;;;;17.39;42.88;100091.42;211160;1287;139519;-76
2022/03/28 10:13:59;;;;;;;22.10;16.90;;;;;;;17.49;43.04;100079.00;211174;1286;444519;-74
2022/03/28 10:19:05;;;;;;;14.60;12.80;;;;;;;17.63;43.01;100069.40;212668;1285;139979;-79
2022/03/28 10:24:36;;;;;;;27.40;21.80;;;;;;;17.87;42.76;100059.75;211358;1285;138872;-82
2022/03/28 10:29:41;;;;;;;22.20;15.80;;;;;;;17.97;42.56;100056.06;210959;1287;140416;-80
2022/03/28 10:35:06;;;;;;;47.90;33.80;;;;;;;18.01;42.42;100041.69;212570;1286;139638;-81
2022/03/28 10:40:25;;;;;;;16.40;8.30;;;;;;;18.10;42.04;100037.64;211088;1287;139026;-79
2022/03/28 10:45:33;;;;;;;6.00;5.40;;;;;;;18.14;41.89;100028.13;211894;1287;139267;-79
2022/03/28 10:50:36;;;;;;;;;;;;;;;18.24;41.91;100021.45;212414;1283;235091;-76
2022/03/28 10:55:53;;;;;;;21.60;13.90;;;;;;;18.33;41.57;100007.64;213715;1283;126714;-76
2022/03/28 11:01:13;;;;;;;;;;;;;;;18.48;41.28;100006.40;213476;1282;140277;-73
2022/03/28 11:06:19;;;;;;;288.70;214.90;;;;;;;18.51;40.61;99995.58;215020;1283;127093;-79
2022/03/28 11:11:28;;;;;;;26.10;13.40;;;;;;;18.59;40.45;99991.40;213539;1283;139616;-78
2022/03/28 11:16:50;;;;;;;56.50;41.80;;;;;;;18.75;40.06;99980.10;214307;1282;140122;-71
2022/03/28 11:22:05;;;;;;;172.50;124.50;;;;;;;18.80;39.89;99969.09;213524;1280;140642;-83
2022/03/28 11:27:09;;;;;;;31.30;24.60;;;;;;;18.89;39.41;99965.68;213697;1283;141220;-80
2022/03/28 11:32:17;;;;;;;15.30;12.00;;;;;;;18.90;38.93;99951.25;213693;1283;160587;-75
2022/03/28 11:37:22;;;;;;;27.30;17.90;;;;;;;19.03;39.34;99934.63;213591;1283;139548;-81
2022/03/28 11:42:33;;;;;;;25.20;12.50;;;;;;;19.13;38.67;99932.64;211836;1283;140264;-71
2022/03/28 11:47:37;;;;;;;12.80;11.50;;;;;;;19.16;38.52;99918.51;212411;1283;140920;-79
2022/03/28 11:52:41;;;;;;;24.00;21.70;;;;;;;19.09;38.15;99912.14;213275;1276;151447;-79
2022/03/28 12:03:11;;;;;;;20.80;15.20;;;;;;;19.02;38.14;99887.79;213579;1276;140478;-79
2022/03/28 12:08:18;;;;;;;31.80;20.40;;;;;;;19.07;37.72;99880.98;213210;1276;140170;-81
2022/03/28 12:13:23;;;;;;;8.40;6.20;;;;;;;19.03;37.75;99879.52;213304;1277;140363;-82
2022/03/28 12:18:30;;;;;;;5.80;4.30;;;;;;;19.06;37.70;99866.40;213653;1276;140442;-79
2022/03/28 12:23:33;;;;;;;14.90;6.80;;;;;;;19.08;37.46;99861.46;213243;1277;161707;-77
2022/03/28 12:28:38;;;;;;;11.70;4.90;;;;;;;19.12;37.37;99860.83;213287;1276;139512;-81
2022/03/28 12:33:43;;;;;;;9.20;6.40;;;;;;;19.10;37.21;99843.07;213151;1277;140622;-80
2022/03/28 12:38:56;;;;;;;59.30;26.80;;;;;;;19.17;37.10;99838.34;213781;1276;139585;-81
2022/03/28 12:43:59;;;;;;;6.90;5.40;;;;;;;19.20;36.70;99829.17;214570;1275;140924;-81
2022/03/28 12:49:13;;;;;;;9.40;6.00;;;;;;;19.28;36.48;99816.27;214170;1277;140510;-75
2022/03/28 12:54:22;;;;;;;29.60;22.60;;;;;;;19.27;36.20;99806.66;214572;1276;140824;-78
2022/03/28 12:59:28;;;;;;;25.20;21.50;;;;;;;19.21;35.65;99792.41;213278;1276;141742;-79
2022/03/28 13:04:41;;;;;;;15.40;11.80;;;;;;;19.16;35.62;99787.02;213939;1276;140078;-76
2022/03/28 13:10:22;;;;;;;32.60;23.60;;;;;;;19.17;35.58;99783.17;213836;1276;140701;-77
2022/03/28 13:15:32;;;;;;;7.30;4.70;;;;;;;19.11;35.66;99769.52;213245;1276;140187;-78
2022/03/28 13:20:39;;;;;;;9.20;5.10;;;;;;;19.09;35.91;99761.16;213854;1276;141578;-76
2022/03/28 13:25:43;;;;;;;6.90;4.60;;;;;;;19.03;36.08;99758.52;214234;1276;140459;-78
2022/03/28 13:30:49;;;;;;;9.10;7.90;;;;;;;18.99;36.05;99749.67;213797;1277;139929;-79
2022/03/28 13:35:54;;;;;;;12.10;10.90;;;;;;;18.98;36.24;99748.27;213302;1277;140434;-79
2022/03/28 13:40:57;;;;;;;12.10;9.60;;;;;;;18.97;36.32;99730.42;214801;1276;141895;-74
2022/03/28 13:46:00;;;;;;;13.90;5.40;;;;;;;18.92;36.64;99722.55;215430;1276;141745;-72
2022/03/28 13:51:02;;;;;;;11.10;5.50;;;;;;;18.91;36.80;99713.80;214466;1277;140261;-69
2022/03/28 13:56:28;;;;;;;8.20;6.00;;;;;;;18.94;36.86;99704.74;215642;1276;139331;-74
2022/03/28 14:01:32;;;;;;;11.80;9.50;;;;;;;18.93;37.04;99692.01;213155;1276;140056;-75
2022/03/28 14:06:36;;;;;;;9.90;4.10;;;;;;;18.93;36.89;99684.50;213304;1276;139307;-74
2022/03/28 14:11:40;;;;;;;16.20;5.50;;;;;;;18.86;36.74;99681.45;214228;1274;139216;-73
2022/03/28 14:16:43;;;;;;;5.70;4.60;;;;;;;18.74;36.72;99675.94;213695;1276;139296;-74
2022/03/28 14:21:47;;;;;;;19.80;5.60;;;;;;;18.66;37.24;99662.64;213220;1276;139575;-78
2022/03/28 14:26:53;;;;;;;40.50;8.50;;;;;;;18.64;37.13;99656.64;213666;1277;139808;-82
2022/03/28 14:31:57;;;;;;;23.90;12.30;;;;;;;18.57;37.19;99652.98;213276;1276;139495;-81
2022/03/28 14:37:05;;;;;;;21.90;11.10;;;;;;;18.52;37.53;99634.19;214353;1276;140624;-81
2022/03/28 14:42:10;;;;;;;49.90;41.80;;;;;;;18.50;37.67;99628.86;213264;1276;139884;-80
2022/03/28 14:47:13;;;;;;;16.20;11.60;;;;;;;18.49;37.84;99628.06;213416;1276;139157;-80
2022/03/28 14:52:18;;;;;;;32.60;24.30;;;;;;;18.41;37.59;99621.40;213732;1276;139934;-81
2022/03/28 14:57:21;;;;;;;43.10;23.80;;;;;;;18.32;37.93;99610.91;213414;1276;140507;-81
2022/03/28 15:02:24;;;;;;;185.30;117.10;;;;;;;18.28;38.01;99606.63;213865;1278;139708;-80
2022/03/28 15:07:29;;;;;;;36.50;27.70;;;;;;;18.18;37.95;99599.36;213486;1278;140433;-80
2022/03/28 15:12:33;;;;;;;18.10;13.30;;;;;;;18.06;38.08;99596.48;213783;1276;139956;-80
2022/03/28 15:17:42;;;;;;;83.20;62.30;;;;;;;17.95;38.34;99589.98;213783;1276;139658;-80
2022/03/28 15:22:45;;;;;;;75.30;66.30;;;;;;;17.84;38.50;99578.16;213335;1276;139545;-75
2022/03/28 15:27:48;;;;;;;372.30;256.00;;;;;;;17.73;38.79;99565.98;213451;1276;139727;-80
2022/03/28 15:32:50;;;;;;;175.10;135.80;;;;;;;17.65;38.91;99561.64;214573;1276;139795;-78
2022/03/28 15:37:53;;;;;;;47.60;35.50;;;;;;;17.56;38.98;99562.30;215420;1276;140447;-81
2022/03/28 15:42:55;;;;;;;39.90;28.80;;;;;;;17.45;39.02;99559.11;215792;1276;139427;-82
2022/03/28 15:47:57;;;;;;;408.10;295.10;;;;;;;17.39;39.15;99553.74;215676;1276;140254;-82
2022/03/28 15:53:01;;;;;;;56.50;42.60;;;;;;;17.31;39.17;99553.33;215812;1276;139765;-81
2022/03/28 15:58:03;;;;;;;69.80;47.50;;;;;;;17.23;39.22;99546.86;215560;1277;140450;-78
2022/03/28 16:03:06;;;;;;;61.70;46.60;;;;;;;17.18;39.35;99546.36;215430;1277;140236;-76
2022/03/28 16:08:09;;;;;;;71.10;49.30;;;;;;;17.07;39.59;99543.83;214053;1277;141152;-77
2022/03/28 16:13:12;;;;;;;18.50;12.60;;;;;;;16.94;39.84;99536.77;213466;1276;139654;-80
2022/03/28 16:18:21;;;;;;;15.20;12.40;;;;;;;16.84;39.97;99533.07;214289;1276;140716;-79
2022/03/28 16:23:25;;;;;;;26.70;19.10;;;;;;;16.68;40.12;99527.85;213871;1277;140696;-75
2022/03/28 16:28:28;;;;;;;10.10;8.40;;;;;;;16.55;40.37;99520.91;214381;1277;139173;-78
2022/03/28 16:33:32;;;;;;;11.50;4.40;;;;;;;16.42;40.70;99515.67;213609;1277;139004;-78
2022/03/28 16:38:35;;;;;;;18.50;12.00;;;;;;;16.25;40.94;99504.10;213671;1277;141046;-78
2022/03/28 16:43:38;;;;;;;24.10;7.00;;;;;;;16.07;41.33;99495.96;213427;1276;207216;-77
2022/03/28 16:48:49;;;;;;;10.60;4.20;;;;;;;15.94;41.60;99489.23;213858;1277;138938;-76
2022/03/28 16:53:57;;;;;;;15.60;7.50;;;;;;;15.80;41.89;99491.14;213040;1276;139712;-72
2022/03/28 16:59:03;;;;;;;44.90;22.60;;;;;;;15.62;42.25;99481.89;213107;1277;140132;-77
2022/03/28 17:04:08;;;;;;;199.30;76.20;;;;;;;15.47;42.51;99477.40;213729;1276;139697;-78
2022/03/28 17:09:13;;;;;;;27.70;14.30;;;;;;;15.30;42.85;99469.22;214194;1276;140230;-74
2022/03/28 17:14:18;;;;;;;18.60;9.00;;;;;;;15.14;43.19;99465.28;213609;1276;140317;-76
2022/03/28 17:19:23;;;;;;;12.20;5.60;;;;;;;15.01;43.57;99466.95;214471;1276;140741;-76
2022/03/28 17:24:27;;;;;;;10.50;6.90;;;;;;;14.88;43.95;99469.06;213194;1276;139298;-76
2022/03/28 17:29:32;;;;;;;12.10;6.00;;;;;;;14.74;44.14;99470.02;213871;1276;139262;-75
2022/03/28 17:34:36;;;;;;;7.30;4.60;;;;;;;14.61;44.55;99469.71;215500;1276;140217;-73
2022/03/28 17:39:44;;;;;;;5.50;4.30;;;;;;;14.48;44.97;99463.58;215574;1276;138999;-77
2022/03/28 17:44:54;;;;;;;4.90;4.20;;;;;;;14.38;45.03;99459.63;215387;1277;139629;-77
2022/03/28 17:49:58;;;;;;;5.20;3.70;;;;;;;14.28;45.46;99462.39;215555;1277;140294;-73
2022/03/28 17:55:02;;;;;;;7.20;4.80;;;;;;;14.21;45.44;99464.58;215704;1276;140433;-76
2022/03/28 18:00:05;;;;;;;5.90;4.60;;;;;;;14.12;45.70;99464.02;215606;1276;140481;-76
2022/03/28 18:05:09;;;;;;;5.00;3.10;;;;;;;14.01;46.17;99465.34;215376;1276;140199;-77
2022/03/28 18:10:13;;;;;;;6.50;4.30;;;;;;;13.92;46.34;99462.72;213419;1276;139436;-73
2022/03/28 18:15:19;;;;;;;11.40;3.80;;;;;;;13.79;46.71;99462.89;213091;1276;141397;-80
2022/03/28 18:20:24;;;;;;;11.40;6.20;;;;;;;13.65;46.98;99461.92;213787;1276;142481;-78
2022/03/28 18:25:26;;;;;;;8.30;5.90;;;;;;;13.52;47.45;99450.67;214501;1276;140216;-74
2022/03/28 18:30:29;;;;;;;5.30;4.70;;;;;;;13.41;47.77;99451.21;212955;1276;139651;-77
2022/03/28 18:35:32;;;;;;;7.30;5.30;;;;;;;13.32;47.81;99445.16;212926;1276;139109;-74
2022/03/28 18:40:34;;;;;;;6.70;4.90;;;;;;;13.26;48.03;99449.02;214310;1276;140310;-79
2022/03/28 18:45:39;;;;;;;9.40;5.00;;;;;;;13.15;48.51;99448.63;212914;1276;139213;-81
2022/03/28 18:50:43;;;;;;;9.60;6.10;;;;;;;13.04;48.56;99444.91;213085;1276;138933;-68
2022/03/28 18:55:46;;;;;;;14.00;5.90;;;;;;;12.93;48.77;99447.66;213025;1278;139738;-78
2022/03/28 19:00:49;;;;;;;16.70;10.00;;;;;;;12.82;49.08;99446.89;213113;1276;139486;-77
2022/03/28 19:06:15;;;;;;;11.60;8.20;;;;;;;12.74;49.18;99444.16;213711;1276;139886;-79
2022/03/28 19:11:22;;;;;;;7.50;5.50;;;;;;;12.67;49.44;99440.84;213726;1277;142803;-73
2022/03/28 19:16:32;;;;;;;7.10;6.40;;;;;;;12.60;49.46;99433.38;214121;1276;138999;-76
2022/03/28 19:21:36;;;;;;;13.30;6.00;;;;;;;12.51;49.80;99430.81;213261;1278;210941;-77
2022/03/28 19:26:39;;;;;;;8.60;5.80;;;;;;;12.46;49.75;99425.11;213703;1276;141403;-75
2022/03/28 19:31:42;;;;;;;9.20;5.80;;;;;;;12.40;49.72;99424.09;215178;1276;140493;-77
2022/03/28 19:36:45;;;;;;;9.40;6.00;;;;;;;12.35;49.95;99425.97;215169;1276;139900;-80
2022/03/28 19:41:51;;;;;;;10.60;5.80;;;;;;;12.31;50.13;99421.59;215007;1276;139651;-81
2022/03/28 19:46:54;;;;;;;8.70;7.60;;;;;;;12.27;50.15;99413.64;215444;1276;141316;-73
2022/03/28 19:51:57;;;;;;;8.50;6.30;;;;;;;12.22;50.06;99412.39;215318;1276;140389;-73
2022/03/28 19:57:21;;;;;;;8.10;6.10;;;;;;;12.17;50.39;99406.73;213840;1276;141450;-77
2022/03/28 20:02:25;;;;;;;10.30;7.50;;;;;;;12.11;50.49;99401.11;214739;1276;140478;-77
2022/03/28 20:07:28;;;;;;;10.00;7.80;;;;;;;12.07;50.60;99393.11;214192;1276;141291;-70
2022/03/28 20:12:31;;;;;;;12.50;6.90;;;;;;;12.01;50.68;99390.52;213402;1276;140812;-77
2022/03/28 20:17:40;;;;;;;10.10;7.40;;;;;;;11.96;51.03;99383.63;214357;1277;141641;-73
2022/03/28 20:22:44;;;;;;;15.20;8.00;;;;;;;11.90;51.23;99376.86;213650;1277;141533;-72
2022/03/28 20:27:49;;;;;;;12.80;7.00;;;;;;;11.84;51.24;99371.95;213197;1277;141679;-73
2022/03/28 20:32:52;;;;;;;17.60;9.30;;;;;;;11.79;51.28;99363.23;213834;1277;141651;-78
2022/03/28 20:37:55;;;;;;;9.60;7.40;;;;;;;11.76;51.48;99356.51;213142;1277;141132;-78
2022/03/28 20:43:01;;;;;;;12.50;8.40;;;;;;;11.73;51.60;99355.44;213473;1276;141579;-77
2022/03/28 20:48:04;;;;;;;13.60;8.50;;;;;;;11.68;51.67;99351.92;214394;1277;141376;-78
2022/03/28 20:53:08;;;;;;;14.00;9.60;;;;;;;11.65;51.82;99351.45;214010;1277;139044;-71
2022/03/28 20:58:11;;;;;;;13.00;8.10;;;;;;;11.62;51.95;99349.98;214461;1277;140314;-71
2022/03/28 21:03:14;;;;;;;15.30;8.60;;;;;;;11.59;51.84;99349.75;214237;1276;140757;-78
2022/03/28 21:08:16;;;;;;;13.90;8.70;;;;;;;11.52;51.88;99350.36;213833;1277;139983;-72
2022/03/28 21:13:19;;;;;;;12.70;8.20;;;;;;;11.44;52.08;99345.73;213588;1276;140068;-70
2022/03/28 21:18:23;;;;;;;16.70;10.00;;;;;;;11.32;52.27;99342.11;213034;1277;144147;-75
2022/03/28 21:23:27;;;;;;;14.80;9.90;;;;;;;11.20;52.42;99345.93;214172;1277;141803;-72
2022/03/28 21:28:30;;;;;;;17.20;10.40;;;;;;;11.08;52.56;99355.59;213946;1277;140438;-71
2022/03/28 21:33:35;;;;;;;20.00;12.00;;;;;;;10.86;52.72;99360.52;212980;1278;140538;-78
2022/03/28 21:38:38;;;;;;;19.20;11.60;;;;;;;10.66;53.10;99357.15;213902;1277;141427;-73
2022/03/28 21:43:42;;;;;;;23.90;10.40;;;;;;;10.52;53.53;99351.65;214559;1277;139587;-74
2022/03/28 21:48:45;;;;;;;17.40;10.50;;;;;;;10.41;53.65;99354.16;214670;1277;140743;-78
2022/03/28 21:53:48;;;;;;;17.10;9.50;;;;;;;10.33;53.77;99353.98;213975;1277;139795;-74
2022/03/28 21:58:51;;;;;;;18.20;11.30;;;;;;;10.17;53.98;99348.15;215207;1277;143660;-67
2022/03/28 22:03:55;;;;;;;15.70;10.30;;;;;;;9.94;54.46;99346.53;215715;1276;141039;-76
2022/03/28 22:08:58;;;;;;;14.40;9.60;;;;;;;9.72;54.99;99337.67;214556;1277;143026;-75
2022/03/28 22:14:01;;;;;;;18.40;9.40;;;;;;;9.55;55.31;99333.46;213718;1277;1547300;-70
2022/03/28 22:19:04;;;;;;;15.00;8.00;;;;;;;9.45;55.56;99331.04;213341;1277;139815;-69
2022/03/28 22:24:08;;;;;;;15.50;8.70;;;;;;;9.32;55.62;99336.86;215044;1276;139303;-69
2022/03/28 22:29:11;;;;;;;7.70;6.00;;;;;;;9.21;55.63;99332.21;213879;1276;139096;-72
2022/03/28 22:34:14;;;;;;;7.70;6.10;;;;;;;9.11;55.69;99331.87;214566;1277;139157;-69
2022/03/28 22:39:17;;;;;;;9.80;5.40;;;;;;;9.03;55.45;99333.56;213047;1277;139811;-71
2022/03/28 22:44:20;;;;;;;13.40;6.20;;;;;;;8.98;55.38;99344.98;213420;1277;139608;-73
2022/03/28 22:49:24;;;;;;;12.10;6.00;;;;;;;8.89;55.38;99337.60;213111;1277;139518;-74
2022/03/28 22:54:27;;;;;;;12.70;7.10;;;;;;;8.80;55.45;99326.32;214135;1277;139818;-73
2022/03/28 22:59:30;;;;;;;8.90;6.00;;;;;;;8.66;55.37;99323.41;213236;1277;140122;-69
2022/03/28 23:04:33;;;;;;;7.80;6.40;;;;;;;8.50;55.48;99323.89;212990;1277;139601;-77
2022/03/28 23:09:37;;;;;;;10.10;6.40;;;;;;;8.33;56.07;99320.95;213242;1277;138489;-70
2022/03/28 23:14:41;;;;;;;10.10;6.80;;;;;;;8.21;56.38;99320.49;214461;1276;139546;-77
2022/03/28 23:19:43;;;;;;;8.10;5.70;;;;;;;8.08;56.37;99313.48;213712;1276;139347;-80